Time;durP1;ratioP1;P1;durP2;ratioP2;P2;SDS_P1;SDS_P2;PMS_P1;PMS_P2;Temp;Humidity;BMP_temperature;BMP_pressure;BME280_temperature;BME280_humidity;BME280_pressure;Samples;Min_cycle;Max_cycle;Signal;HPM_P1;HPM_P2
2023/08/08 00:00:00;;;;;;;4.00;1.70;;;;;;;;;;5036544;28;20469;-78
2023/08/08 00:02:28;;;;;;;2.73;1.30;;;;;;;;;;5037251;28;20486;-79
2023/08/08 00:04:56;;;;;;;4.13;1.20;;;;;;;;;;5035001;28;20886;-77
2023/08/08 00:07:23;;;;;;;4.20;2.23;;;;;;;;;;5035995;28;20469;-77
2023/08/08 00:09:52;;;;;;;4.63;1.40;;;;;;;;;;5036616;28;20874;-77
2023/08/08 00:12:20;;;;;;;3.30;1.30;;;;;;;;;;5041280;28;20482;-79
2023/08/08 00:14:49;;;;;;;5.07;1.83;;;;;;;;;;5043137;28;20454;-79
2023/08/08 00:17:17;;;;;;;5.80;1.50;;;;;;;;;;5044208;28;20485;-78
2023/08/08 00:19:44;;;;;;;2.77;1.50;;;;;;;;;;5044007;28;20794;-79
2023/08/08 00:22:12;;;;;;;3.87;1.60;;;;;;;;;;5043680;28;20462;-77
2023/08/08 00:24:39;;;;;;;3.33;1.20;;;;;;;;;;5043217;28;20465;-78
2023/08/08 00:27:08;;;;;;;7.90;2.30;;;;;;;;;;5044754;28;20469;-78
2023/08/08 00:29:36;;;;;;;5.70;1.67;;;;;;;;;;5040114;28;20462;-78
2023/08/08 00:32:04;;;;;;;4.07;1.67;;;;;;;;;;5044342;28;20831;-78
2023/08/08 00:34:31;;;;;;;3.67;1.30;;;;;;;;;;5038689;28;20451;-79
2023/08/08 00:37:02;;;;;;;3.63;1.90;;;;;;;;;;5041010;28;20488;-78
2023/08/08 00:39:31;;;;;;;2.23;1.27;;;;;;;;;;5037347;28;20454;-77
2023/08/08 00:41:58;;;;;;;3.70;1.50;;;;;;;;;;5040273;28;20469;-79
2023/08/08 00:44:28;;;;;;;6.63;1.80;;;;;;;;;;5036518;28;20490;-77
2023/08/08 00:46:56;;;;;;;5.20;1.60;;;;;;;;;;5038471;28;20854;-78
2023/08/08 00:49:24;;;;;;;4.93;1.50;;;;;;;;;;5039458;28;20859;-79
2023/08/08 00:51:52;;;;;;;5.43;1.30;;;;;;;;;;5040196;28;20577;-79
2023/08/08 00:54:21;;;;;;;3.40;1.40;;;;;;;;;;5042705;28;20443;-78
2023/08/08 00:56:48;;;;;;;2.80;1.50;;;;;;;;;;5042814;28;20459;-78
2023/08/08 00:59:17;;;;;;;3.43;1.23;;;;;;;;;;5041763;28;20458;-78
2023/08/08 01:01:47;;;;;;;2.80;1.50;;;;;;;;;;5043389;28;20557;-78
2023/08/08 01:04:15;;;;;;;6.43;1.53;;;;;;;;;;5042586;28;20497;-77
2023/08/08 01:06:46;;;;;;;6.20;1.70;;;;;;;;;;5044308;28;20458;-79
2023/08/08 01:09:19;;;;;;;5.20;1.63;;;;;;;;;;5045923;28;20460;-80
2023/08/08 01:11:49;;;;;;;2.73;1.47;;;;;;;;;;5045036;28;20489;-78
2023/08/08 01:14:18;;;;;;;3.80;1.87;;;;;;;;;;5043640;28;20466;-78
2023/08/08 01:16:48;;;;;;;3.90;1.93;;;;;;;;;;5047319;28;20461;-78
2023/08/08 01:19:21;;;;;;;3.97;1.70;;;;;;;;;;5047791;28;20533;-79
2023/08/08 01:21:50;;;;;;;3.87;1.20;;;;;;;;;;5046443;28;20466;-78
2023/08/08 01:24:21;;;;;;;4.47;1.70;;;;;;;;;;5045919;28;20496;-78
2023/08/08 01:26:49;;;;;;;3.80;1.70;;;;;;;;;;5044874;28;20452;-79
2023/08/08 01:29:16;;;;;;;3.77;1.63;;;;;;;;;;5043227;28;21006;-79
2023/08/08 01:31:44;;;;;;;5.90;1.60;;;;;;;;;;5041750;28;20466;-79
2023/08/08 01:34:12;;;;;;;7.43;1.70;;;;;;;;;;5044451;28;20442;-79
2023/08/08 01:36:42;;;;;;;3.13;1.43;;;;;;;;;;5042275;28;20465;-78
2023/08/08 01:39:12;;;;;;;3.77;1.60;;;;;;;;;;5044254;28;20900;-78
2023/08/08 01:41:44;;;;;;;2.90;1.33;;;;;;;;;;5045510;28;20446;-78
2023/08/08 01:44:12;;;;;;;3.57;1.40;;;;;;;;;;5045943;28;20767;-79
2023/08/08 01:46:39;;;;;;;4.90;2.03;;;;;;;;;;5044099;28;20480;-78
2023/08/08 01:49:07;;;;;;;2.27;1.20;;;;;;;;;;5045757;28;20434;-76
2023/08/08 01:51:34;;;;;;;5.13;1.53;;;;;;;;;;5047746;28;20446;-79
2023/08/08 01:54:02;;;;;;;5.50;2.00;;;;;;;;;;5045668;28;20454;-79
2023/08/08 01:56:30;;;;;;;3.00;1.10;;;;;;;;;;5044995;28;20452;-79
2023/08/08 01:58:59;;;;;;;3.53;1.63;;;;;;;;;;5046023;28;20458;-79
2023/08/08 02:01:27;;;;;;;3.53;1.57;;;;;;;;;;5045524;28;20458;-78
2023/08/08 02:03:57;;;;;;;4.17;1.90;;;;;;;;;;5047240;28;20490;-78
2023/08/08 02:06:25;;;;;;;2.20;1.10;;;;;;;;;;5047566;28;20710;-78
2023/08/08 02:08:52;;;;;;;2.90;1.27;;;;;;;;;;5044527;28;20851;-78
2023/08/08 02:11:21;;;;;;;2.77;1.20;;;;;;;;;;5046886;28;20454;-79
2023/08/08 02:13:49;;;;;;;2.17;1.03;;;;;;;;;;5064352;28;20457;-78
2023/08/08 02:16:18;;;;;;;4.87;1.23;;;;;;;;;;5061485;28;20461;-78
2023/08/08 02:18:45;;;;;;;4.93;1.83;;;;;;;;;;5063756;28;21085;-78
2023/08/08 02:21:16;;;;;;;4.80;1.27;;;;;;;;;;5064984;28;20437;-78
2023/08/08 02:23:44;;;;;;;4.60;1.40;;;;;;;;;;5063384;28;20496;-78
2023/08/08 02:26:11;;;;;;;4.37;0.90;;;;;;;;;;5064343;28;20453;-78
2023/08/08 02:28:39;;;;;;;4.50;1.50;;;;;;;;;;5062045;28;20526;-78
2023/08/08 02:31:06;;;;;;;3.07;1.33;;;;;;;;;;5061857;28;20453;-78
2023/08/08 02:33:38;;;;;;;2.67;1.23;;;;;;;;;;5062962;28;20429;-78
2023/08/08 02:36:05;;;;;;;3.70;1.23;;;;;;;;;;5061272;28;20556;-78
2023/08/08 02:38:33;;;;;;;3.87;1.50;;;;;;;;;;5064098;28;20449;-78
2023/08/08 02:41:01;;;;;;;4.77;1.50;;;;;;;;;;5062403;28;20465;-78
2023/08/08 02:43:28;;;;;;;6.63;2.00;;;;;;;;;;5060949;28;20489;-78
2023/08/08 02:45:56;;;;;;;4.13;3.57;;;;;;;;;;5064825;28;20857;-78
2023/08/08 02:48:24;;;;;;;7.17;1.70;;;;;;;;;;5082171;28;20522;-78
2023/08/08 02:50:53;;;;;;;4.70;1.77;;;;;;;;;;5103598;28;20443;-78
2023/08/08 02:53:21;;;;;;;4.40;2.13;;;;;;;;;;5102695;28;20868;-77
2023/08/08 02:55:49;;;;;;;3.43;1.93;;;;;;;;;;5103546;28;20458;-79
2023/08/08 02:58:16;;;;;;;3.60;1.77;;;;;;;;;;5102793;28;20471;-78
2023/08/08 03:00:44;;;;;;;2.77;1.30;;;;;;;;;;5102427;28;20455;-78
2023/08/08 03:03:11;;;;;;;4.30;2.07;;;;;;;;;;5100144;28;20657;-78
2023/08/08 03:05:39;;;;;;;5.37;1.93;;;;;;;;;;5099234;28;20878;-79
2023/08/08 03:08:08;;;;;;;5.40;1.70;;;;;;;;;;5101191;28;20455;-79
2023/08/08 03:10:36;;;;;;;5.57;2.10;;;;;;;;;;5099932;28;20466;-80
2023/08/08 03:13:04;;;;;;;3.40;1.57;;;;;;;;;;5100467;28;20584;-78
2023/08/08 03:15:31;;;;;;;3.73;1.70;;;;;;;;;;5100866;28;20519;-78
2023/08/08 03:17:59;;;;;;;3.27;2.03;;;;;;;;;;5101303;28;20473;-80
2023/08/08 03:20:27;;;;;;;5.70;2.07;;;;;;;;;;5105920;28;20781;-79
2023/08/08 03:22:54;;;;;;;3.70;2.10;;;;;;;;;;5104627;28;20788;-81
2023/08/08 03:25:24;;;;;;;3.10;2.63;;;;;;;;;;5104848;28;20746;-78
2023/08/08 03:27:52;;;;;;;4.10;1.97;;;;;;;;;;5101769;28;20715;-78
2023/08/08 03:30:23;;;;;;;9.17;2.53;;;;;;;;;;5102095;28;20447;-78
2023/08/08 03:32:50;;;;;;;2.43;1.33;;;;;;;;;;5085888;28;20444;-78
2023/08/08 03:35:18;;;;;;;3.47;2.10;;;;;;;;;;5104823;28;20443;-78
2023/08/08 03:37:45;;;;;;;4.13;1.70;;;;;;;;;;5106201;28;20471;-78
2023/08/08 03:40:16;;;;;;;2.30;1.13;;;;;;;;;;5101412;28;20679;-78
2023/08/08 03:42:45;;;;;;;5.23;2.07;;;;;;;;;;5098770;28;20463;-79
2023/08/08 03:45:16;;;;;;;4.63;1.87;;;;;;;;;;5101201;28;20559;-79
2023/08/08 03:47:43;;;;;;;3.00;1.63;;;;;;;;;;5097944;28;20467;-77
2023/08/08 03:50:11;;;;;;;6.00;1.50;;;;;;;;;;5097898;28;20462;-78
2023/08/08 03:52:39;;;;;;;6.90;2.00;;;;;;;;;;5096853;28;20871;-78
2023/08/08 03:55:06;;;;;;;3.13;1.60;;;;;;;;;;5096408;28;20483;-78
2023/08/08 03:57:34;;;;;;;4.57;1.47;;;;;;;;;;5096330;28;20460;-78
2023/08/08 04:00:09;;;;;;;3.60;1.33;;;;;;;;;;5102541;28;20461;-78
2023/08/08 04:02:38;;;;;;;3.17;1.57;;;;;;;;;;5101570;28;20436;-78
2023/08/08 04:05:06;;;;;;;3.90;1.93;;;;;;;;;;5102668;28;20877;-79
2023/08/08 04:07:34;;;;;;;2.80;1.50;;;;;;;;;;5101951;28;20485;-79
2023/08/08 04:10:08;;;;;;;2.97;1.57;;;;;;;;;;5102792;28;20460;-78
2023/08/08 04:12:36;;;;;;;2.73;1.60;;;;;;;;;;5101693;28;20455;-78
2023/08/08 04:15:05;;;;;;;3.57;1.80;;;;;;;;;;5100795;28;20440;-78
2023/08/08 04:17:33;;;;;;;2.43;1.47;;;;;;;;;;5099446;28;20499;-77
2023/08/08 04:20:00;;;;;;;4.70;1.83;;;;;;;;;;5097509;28;20448;-77
2023/08/08 04:22:28;;;;;;;4.90;1.60;;;;;;;;;;5099280;28;20447;-78
2023/08/08 04:24:55;;;;;;;2.60;1.13;;;;;;;;;;5101950;28;20471;-78
2023/08/08 04:27:23;;;;;;;3.83;1.60;;;;;;;;;;5097979;28;20452;-78
2023/08/08 04:29:51;;;;;;;4.07;2.07;;;;;;;;;;5098549;28;20482;-78
2023/08/08 04:32:20;;;;;;;5.70;1.77;;;;;;;;;;5098672;28;20451;-78
2023/08/08 04:34:47;;;;;;;3.50;1.80;;;;;;;;;;5099825;28;20443;-79
2023/08/08 04:37:18;;;;;;;5.23;1.97;;;;;;;;;;5101121;28;20450;-78
2023/08/08 04:39:46;;;;;;;3.27;1.60;;;;;;;;;;5099411;28;20447;-78
2023/08/08 04:42:13;;;;;;;5.97;2.00;;;;;;;;;;5101522;28;20452;-78
2023/08/08 04:44:41;;;;;;;3.17;1.20;;;;;;;;;;5100470;28;20495;-78
2023/08/08 04:47:08;;;;;;;4.30;1.50;;;;;;;;;;5101446;28;20462;-78
2023/08/08 04:49:37;;;;;;;3.90;1.83;;;;;;;;;;5101649;28;20463;-78
2023/08/08 04:52:05;;;;;;;3.97;2.17;;;;;;;;;;5100018;28;20455;-78
2023/08/08 04:54:34;;;;;;;2.70;1.90;;;;;;;;;;5100390;28;20789;-78
2023/08/08 04:57:02;;;;;;;4.23;1.83;;;;;;;;;;5098851;28;20456;-78
2023/08/08 04:59:29;;;;;;;2.70;1.73;;;;;;;;;;5099607;28;20440;-78
2023/08/08 05:01:57;;;;;;;3.67;2.17;;;;;;;;;;5102270;28;20657;-78
2023/08/08 05:04:24;;;;;;;7.03;1.90;;;;;;;;;;5101024;28;20549;-78
2023/08/08 05:06:53;;;;;;;3.67;1.90;;;;;;;;;;5101069;28;20506;-78
2023/08/08 05:09:23;;;;;;;4.13;2.13;;;;;;;;;;5097445;28;20452;-78
2023/08/08 05:11:50;;;;;;;4.87;2.10;;;;;;;;;;5099680;28;20448;-77
2023/08/08 05:14:18;;;;;;;3.50;1.60;;;;;;;;;;5099075;28;20868;-79
2023/08/08 05:16:46;;;;;;;6.23;2.37;;;;;;;;;;5101381;28;20431;-78
2023/08/08 05:19:13;;;;;;;3.30;1.70;;;;;;;;;;5098878;28;20447;-78
2023/08/08 05:21:41;;;;;;;5.23;1.83;;;;;;;;;;5099938;28;20436;-78
2023/08/08 05:24:10;;;;;;;2.50;1.10;;;;;;;;;;5097823;28;20483;-78
2023/08/08 05:26:38;;;;;;;2.97;1.47;;;;;;;;;;5095876;28;20530;-78
2023/08/08 05:29:05;;;;;;;2.83;1.50;;;;;;;;;;5097209;28;20546;-78
2023/08/08 05:31:33;;;;;;;2.40;1.33;;;;;;;;;;5097884;28;20460;-78
2023/08/08 05:34:00;;;;;;;5.03;1.77;;;;;;;;;;5097758;28;20751;-78
2023/08/08 05:36:28;;;;;;;2.90;1.20;;;;;;;;;;5095374;28;20440;-78
2023/08/08 05:38:56;;;;;;;5.33;2.63;;;;;;;;;;5097478;28;20452;-78
2023/08/08 05:41:25;;;;;;;2.70;1.57;;;;;;;;;;5097133;28;20451;-78
2023/08/08 05:43:52;;;;;;;2.20;1.40;;;;;;;;;;5095497;28;20481;-77
2023/08/08 05:46:20;;;;;;;1.90;1.10;;;;;;;;;;5098062;28;20492;-78
2023/08/08 05:48:48;;;;;;;2.80;1.37;;;;;;;;;;5096408;28;20755;-79
2023/08/08 05:51:15;;;;;;;3.03;1.70;;;;;;;;;;5104158;28;20478;-77
2023/08/08 05:53:44;;;;;;;2.03;1.03;;;;;;;;;;5095847;28;20471;-78
2023/08/08 05:56:13;;;;;;;3.17;1.57;;;;;;;;;;5083864;28;20428;-78
2023/08/08 05:58:42;;;;;;;6.50;1.40;;;;;;;;;;5096167;28;20435;-78
2023/08/08 06:01:11;;;;;;;4.93;1.40;;;;;;;;;;5099870;28;20444;-79
2023/08/08 06:03:39;;;;;;;3.47;1.80;;;;;;;;;;5102923;28;20466;-78
2023/08/08 06:06:07;;;;;;;3.17;1.60;;;;;;;;;;5097710;28;20487;-78
2023/08/08 06:08:34;;;;;;;2.00;1.20;;;;;;;;;;5097055;28;20463;-77
2023/08/08 06:11:02;;;;;;;3.87;1.90;;;;;;;;;;5102581;28;20513;-77
2023/08/08 06:13:33;;;;;;;2.93;1.50;;;;;;;;;;5102760;28;20671;-77
2023/08/08 06:16:06;;;;;;;4.20;1.90;;;;;;;;;;5104172;28;20460;-79
2023/08/08 06:18:34;;;;;;;2.73;1.70;;;;;;;;;;5101254;28;20753;-78
2023/08/08 06:21:01;;;;;;;2.73;1.83;;;;;;;;;;5103611;28;20452;-79
2023/08/08 06:23:29;;;;;;;3.63;2.13;;;;;;;;;;5106111;28;20454;-78
2023/08/08 06:25:57;;;;;;;4.43;2.53;;;;;;;;;;5100071;28;20512;-79
2023/08/08 06:28:25;;;;;;;4.83;2.20;;;;;;;;;;5102816;28;20626;-79
2023/08/08 06:30:52;;;;;;;2.93;1.93;;;;;;;;;;5102453;28;20452;-79
2023/08/08 06:33:21;;;;;;;4.57;1.70;;;;;;;;;;5098202;28;20462;-78
2023/08/08 06:35:49;;;;;;;7.10;2.20;;;;;;;;;;5100348;28;20451;-79
2023/08/08 06:38:16;;;;;;;6.93;3.17;;;;;;;;;;5104263;28;20768;-79
2023/08/08 06:40:44;;;;;;;6.30;2.90;;;;;;;;;;5100601;28;20479;-79
2023/08/08 06:43:12;;;;;;;7.03;3.03;;;;;;;;;;5101402;28;20483;-79
2023/08/08 06:45:41;;;;;;;5.13;1.73;;;;;;;;;;5101668;28;20484;-79
2023/08/08 06:48:08;;;;;;;4.83;1.30;;;;;;;;;;5103344;28;20483;-78
2023/08/08 06:50:38;;;;;;;4.00;2.20;;;;;;;;;;5106844;28;20483;-78
2023/08/08 06:53:06;;;;;;;2.27;1.30;;;;;;;;;;5099033;28;20580;-77
2023/08/08 06:55:34;;;;;;;4.50;1.70;;;;;;;;;;5091734;28;20437;-78
2023/08/08 06:58:02;;;;;;;5.40;2.17;;;;;;;;;;5079626;28;20524;-78
2023/08/08 07:00:30;;;;;;;3.03;1.40;;;;;;;;;;5098321;28;20483;-77
2023/08/08 07:02:58;;;;;;;7.10;1.90;;;;;;;;;;5102335;28;20485;-78
2023/08/08 07:05:29;;;;;;;3.93;1.30;;;;;;;;;;5100268;28;20479;-78
2023/08/08 07:07:58;;;;;;;4.53;1.60;;;;;;;;;;5102596;28;20428;-78
2023/08/08 07:10:27;;;;;;;3.00;1.40;;;;;;;;;;5099842;28;20440;-77
2023/08/08 07:12:55;;;;;;;3.50;1.60;;;;;;;;;;5097226;28;20460;-77
2023/08/08 07:15:23;;;;;;;3.47;1.97;;;;;;;;;;5096165;28;20476;-77
2023/08/08 07:17:52;;;;;;;3.00;1.60;;;;;;;;;;5098750;28;20451;-78
2023/08/08 07:20:20;;;;;;;4.67;1.53;;;;;;;;;;5099173;28;20553;-78
2023/08/08 07:22:51;;;;;;;4.00;1.50;;;;;;;;;;5098792;28;20454;-77
2023/08/08 07:25:21;;;;;;;5.60;1.60;;;;;;;;;;5098289;28;20506;-77
2023/08/08 07:27:49;;;;;;;3.90;1.30;;;;;;;;;;5092339;28;20879;-77
2023/08/08 07:30:19;;;;;;;2.93;1.70;;;;;;;;;;5105092;28;20467;-78
2023/08/08 07:32:48;;;;;;;4.93;1.97;;;;;;;;;;5098894;28;20470;-78
2023/08/08 07:35:15;;;;;;;7.23;1.43;;;;;;;;;;5104697;28;20443;-80
2023/08/08 07:37:44;;;;;;;10.93;2.27;;;;;;;;;;5098202;27;20458;-79
2023/08/08 07:40:21;;;;;;;4.10;2.03;;;;;;;;;;5097480;27;20479;-77
2023/08/08 07:42:50;;;;;;;2.40;1.30;;;;;;;;;;5101525;28;20935;-78
2023/08/08 07:45:18;;;;;;;3.70;1.87;;;;;;;;;;5101176;28;20557;-79
2023/08/08 07:47:45;;;;;;;3.10;1.73;;;;;;;;;;5103608;27;21118;-78
2023/08/08 07:50:17;;;;;;;5.10;1.30;;;;;;;;;;5100497;28;20532;-79
2023/08/08 07:52:45;;;;;;;3.20;1.30;;;;;;;;;;5099705;28;20464;-78
2023/08/08 07:55:16;;;;;;;6.23;1.93;;;;;;;;;;5101410;28;20432;-78
2023/08/08 07:57:53;;;;;;;9.33;1.80;;;;;;;;;;5087180;28;20467;-78
2023/08/08 08:00:23;;;;;;;3.77;1.60;;;;;;;;;;5074044;28;20449;-78
2023/08/08 08:02:52;;;;;;;2.23;1.00;;;;;;;;;;5063449;28;20441;-78
2023/08/08 08:05:24;;;;;;;3.67;1.40;;;;;;;;;;5101466;28;20483;-78
2023/08/08 08:07:53;;;;;;;3.93;1.03;;;;;;;;;;5089875;28;20532;-78
2023/08/08 08:10:23;;;;;;;7.40;1.70;;;;;;;;;;5082981;28;20452;-78
2023/08/08 08:12:57;;;;;;;5.33;1.43;;;;;;;;;;5074669;28;20457;-78
2023/08/08 08:15:25;;;;;;;3.93;0.90;;;;;;;;;;5070086;28;20472;-78
2023/08/08 08:17:53;;;;;;;3.10;1.00;;;;;;;;;;5056477;28;20521;-77
2023/08/08 08:20:20;;;;;;;3.20;1.30;;;;;;;;;;5058292;28;20449;-77
2023/08/08 08:22:48;;;;;;;7.63;1.80;;;;;;;;;;5067340;28;20457;-78
2023/08/08 08:25:15;;;;;;;3.23;1.17;;;;;;;;;;5065285;28;20492;-77
2023/08/08 08:27:43;;;;;;;3.47;1.77;;;;;;;;;;5072517;28;20454;-78
2023/08/08 08:30:15;;;;;;;4.30;1.20;;;;;;;;;;5064393;28;20500;-78
2023/08/08 08:32:43;;;;;;;4.00;1.20;;;;;;;;;;5079717;28;20453;-77
2023/08/08 08:35:16;;;;;;;1.93;1.00;;;;;;;;;;5070036;28;20468;-78
2023/08/08 08:37:44;;;;;;;7.30;1.10;;;;;;;;;;5067221;28;20545;-78
2023/08/08 08:40:16;;;;;;;3.40;1.10;;;;;;;;;;5079276;28;20525;-77
2023/08/08 08:42:49;;;;;;;3.90;1.23;;;;;;;;;;5079451;28;20573;-78
2023/08/08 08:45:30;;;;;;;3.33;1.20;;;;;;;;;;5072320;28;20488;-77
2023/08/08 08:48:05;;;;;;;5.90;1.60;;;;;;;;;;5088478;28;20505;-77
2023/08/08 08:50:35;;;;;;;4.53;1.60;;;;;;;;;;5083760;28;20460;-78
2023/08/08 08:53:11;;;;;;;5.97;1.57;;;;;;;;;;5082944;28;20810;-78
2023/08/08 08:55:39;;;;;;;3.13;1.00;;;;;;;;;;5087266;28;20478;-78
2023/08/08 08:58:08;;;;;;;4.40;1.33;;;;;;;;;;5088184;28;20459;-77
2023/08/08 09:00:37;;;;;;;6.03;1.47;;;;;;;;;;5094528;28;20476;-77
2023/08/08 09:03:06;;;;;;;2.37;1.10;;;;;;;;;;5094375;28;20464;-78
2023/08/08 09:05:37;;;;;;;5.60;1.20;;;;;;;;;;5082972;28;20483;-79
2023/08/08 09:08:05;;;;;;;2.77;1.13;;;;;;;;;;5087805;28;20479;-78
2023/08/08 09:10:53;;;;;;;4.27;1.77;;;;;;;;;;5087541;28;20455;-78
2023/08/08 09:13:22;;;;;;;3.63;1.57;;;;;;;;;;5088361;28;21169;-78
2023/08/08 09:15:59;;;;;;;2.30;1.10;;;;;;;;;;5112617;28;20457;-79
2023/08/08 09:18:31;;;;;;;1.83;0.97;;;;;;;;;;5094660;28;20711;-77
2023/08/08 09:21:09;;;;;;;3.87;1.17;;;;;;;;;;5081979;28;20456;-78
2023/08/08 09:23:40;;;;;;;2.70;1.40;;;;;;;;;;5106434;28;20488;-78
2023/08/08 09:26:08;;;;;;;2.00;0.90;;;;;;;;;;5083906;28;20743;-77
2023/08/08 09:28:52;;;;;;;3.30;1.17;;;;;;;;;;5088019;28;21143;-77
2023/08/08 09:31:27;;;;;;;3.57;1.10;;;;;;;;;;5099183;28;20471;-77
2023/08/08 09:34:35;;;;;;;2.63;1.53;;;;;;;;;;5100393;28;20751;-78
2023/08/08 09:37:08;;;;;;;2.47;0.77;;;;;;;;;;5083778;28;20837;-77
2023/08/08 09:39:40;;;;;;;2.30;1.10;;;;;;;;;;5090556;28;20464;-78
2023/08/08 09:42:11;;;;;;;2.60;0.80;;;;;;;;;;5090914;28;20475;-78
2023/08/08 09:44:41;;;;;;;3.00;0.77;;;;;;;;;;5084810;28;20487;-78
2023/08/08 09:47:16;;;;;;;2.90;1.07;;;;;;;;;;5088700;28;21125;-77
2023/08/08 09:53:03;;;;;;;3.17;0.77;;;;;;;;;;5092666;28;20467;-78
2023/08/08 09:55:55;;;;;;;;;;;;;;;;;;;;;
2023/08/08 09:58:41;;;;;;;1.57;0.67;;;;;;;;;;5093057;28;20567;-78
2023/08/08 10:01:15;;;;;;;2.50;1.00;;;;;;;;;;5101036;28;20784;-80
2023/08/08 10:04:32;;;;;;;1.83;0.90;;;;;;;;;;5098721;28;20581;-78
2023/08/08 10:12:17;;;;;;;3.50;1.37;;;;;;;;;;5125467;22;20488;-77
2023/08/08 10:14:58;;;;;;;2.87;1.00;;;;;;;;;;5070773;28;20464;-79
2023/08/08 10:17:27;;;;;;;7.07;2.50;;;;;;;;;;5078421;28;20480;-78
2023/08/08 10:20:11;;;;;;;3.30;1.00;;;;;;;;;;5074964;28;20476;-79
2023/08/08 10:22:39;;;;;;;2.33;0.60;;;;;;;;;;5084647;28;20456;-76
2023/08/08 10:25:10;;;;;;;2.10;0.97;;;;;;;;;;5070373;28;20490;-77
2023/08/08 10:28:03;;;;;;;5.90;1.53;;;;;;;;;;5071767;28;20476;-78
2023/08/08 10:31:01;;;;;;;2.70;1.13;;;;;;;;;;5074548;28;20584;-78
2023/08/08 10:33:45;;;;;;;2.43;1.00;;;;;;;;;;5079023;28;20452;-77
2023/08/08 10:36:14;;;;;;;2.97;1.37;;;;;;;;;;5080029;28;20776;-78
2023/08/08 10:38:42;;;;;;;4.10;1.53;;;;;;;;;;5083198;28;20452;-77
2023/08/08 10:41:17;;;;;;;1.90;1.00;;;;;;;;;;5086134;28;21077;-78
2023/08/08 10:43:52;;;;;;;3.23;1.03;;;;;;;;;;5085442;28;20479;-78
2023/08/08 10:46:28;;;;;;;2.37;1.03;;;;;;;;;;5081577;28;20561;-77
2023/08/08 10:49:00;;;;;;;3.47;0.97;;;;;;;;;;5077132;28;20471;-77
2023/08/08 10:51:34;;;;;;;3.80;0.90;;;;;;;;;;5066333;28;20489;-79
2023/08/08 10:54:08;;;;;;;3.03;1.00;;;;;;;;;;5061308;28;20507;-77
2023/08/08 10:56:41;;;;;;;3.60;0.80;;;;;;;;;;5062516;28;20453;-79
2023/08/08 10:59:18;;;;;;;1.60;0.63;;;;;;;;;;5062061;28;20445;-78
2023/08/08 11:01:48;;;;;;;6.60;1.10;;;;;;;;;;5063090;28;20456;-78
2023/08/08 11:04:20;;;;;;;2.27;0.93;;;;;;;;;;5064031;28;20803;-77
2023/08/08 11:06:49;;;;;;;2.67;1.20;;;;;;;;;;5064172;28;20496;-78
2023/08/08 11:09:28;;;;;;;4.20;1.07;;;;;;;;;;5080103;28;20460;-79
2023/08/08 11:11:56;;;;;;;3.10;0.70;;;;;;;;;;5083004;28;20575;-78
2023/08/08 11:14:26;;;;;;;1.50;0.80;;;;;;;;;;5082942;28;20532;-78
2023/08/08 11:16:54;;;;;;;1.77;0.70;;;;;;;;;;5081351;28;20472;-79
2023/08/08 11:19:24;;;;;;;2.60;1.40;;;;;;;;;;5083462;28;20456;-76
2023/08/08 11:21:51;;;;;;;3.07;1.60;;;;;;;;;;5077480;28;20461;-77
2023/08/08 11:24:19;;;;;;;2.57;1.70;;;;;;;;;;5076792;28;20491;-78
2023/08/08 11:26:47;;;;;;;3.50;1.00;;;;;;;;;;5080619;28;20469;-78
2023/08/08 11:29:15;;;;;;;3.67;1.40;;;;;;;;;;5074446;28;20528;-78
2023/08/08 11:31:48;;;;;;;4.03;1.23;;;;;;;;;;5073580;28;20723;-79
2023/08/08 11:34:18;;;;;;;3.50;1.70;;;;;;;;;;5065813;28;20470;-78
2023/08/08 11:36:48;;;;;;;2.37;1.27;;;;;;;;;;5067223;28;20525;-77
2023/08/08 11:39:16;;;;;;;5.00;1.60;;;;;;;;;;5070777;28;20455;-77
2023/08/08 11:41:46;;;;;;;3.77;1.33;;;;;;;;;;5071532;28;21215;-78
2023/08/08 11:44:14;;;;;;;3.10;1.50;;;;;;;;;;5065827;28;20458;-77
2023/08/08 11:46:45;;;;;;;4.70;2.33;;;;;;;;;;5071448;28;20493;-78
2023/08/08 11:49:20;;;;;;;4.13;1.37;;;;;;;;;;5061797;28;20468;-78
2023/08/08 11:51:50;;;;;;;2.53;0.90;;;;;;;;;;5072797;28;20459;-77
2023/08/08 11:54:18;;;;;;;2.10;0.93;;;;;;;;;;5069002;28;20501;-78
2023/08/08 11:56:47;;;;;;;4.40;1.17;;;;;;;;;;5073339;28;20567;-78
2023/08/08 11:59:17;;;;;;;2.20;0.90;;;;;;;;;;5072666;28;20456;-77
2023/08/08 12:01:45;;;;;;;2.10;0.80;;;;;;;;;;5075201;28;20468;-78
2023/08/08 12:04:12;;;;;;;1.87;0.70;;;;;;;;;;5068967;28;21054;-79
2023/08/08 12:06:43;;;;;;;2.10;0.80;;;;;;;;;;5048908;28;20558;-78
2023/08/08 12:09:14;;;;;;;4.00;1.40;;;;;;;;;;5076043;28;20513;-78
2023/08/08 12:11:44;;;;;;;2.40;0.80;;;;;;;;;;5071099;28;20563;-76
2023/08/08 12:14:13;;;;;;;1.67;0.77;;;;;;;;;;5054817;28;20853;-76
2023/08/08 12:16:41;;;;;;;1.80;0.70;;;;;;;;;;5058789;28;20464;-76
2023/08/08 12:19:14;;;;;;;2.00;0.67;;;;;;;;;;5064453;28;20487;-77
2023/08/08 12:21:44;;;;;;;3.40;1.20;;;;;;;;;;5065225;28;20496;-79
2023/08/08 12:24:14;;;;;;;3.63;1.37;;;;;;;;;;5070397;28;20461;-76
2023/08/08 12:26:44;;;;;;;2.20;0.97;;;;;;;;;;5071727;28;20960;-75
2023/08/08 12:29:25;;;;;;;5.53;1.80;;;;;;;;;;5059063;28;20543;-78
2023/08/08 12:32:23;;;;;;;1.83;0.73;;;;;;;;;;5071692;28;20455;-77
2023/08/08 12:34:55;;;;;;;1.77;0.70;;;;;;;;;;5069257;28;20457;-78
2023/08/08 12:37:27;;;;;;;2.90;0.90;;;;;;;;;;5063811;28;20530;-77
2023/08/08 12:39:56;;;;;;;7.30;1.47;;;;;;;;;;5062801;28;20453;-77
2023/08/08 12:42:24;;;;;;;4.83;1.20;;;;;;;;;;5064795;28;20457;-81
2023/08/08 12:44:52;;;;;;;2.53;0.83;;;;;;;;;;5058426;28;20508;-79
2023/08/08 12:47:20;;;;;;;6.13;2.23;;;;;;;;;;5058923;28;20469;-78
2023/08/08 12:49:50;;;;;;;1.80;0.80;;;;;;;;;;5065226;28;20448;-76
2023/08/08 12:52:18;;;;;;;3.57;0.83;;;;;;;;;;5058352;28;20488;-77
2023/08/08 12:54:46;;;;;;;2.97;0.93;;;;;;;;;;5070802;28;20550;-79
2023/08/08 12:57:41;;;;;;;3.23;0.87;;;;;;;;;;5081099;28;20456;-82
2023/08/08 13:00:14;;;;;;;2.60;0.80;;;;;;;;;;5077497;28;20508;-80
2023/08/08 13:02:42;;;;;;;2.27;0.80;;;;;;;;;;5084591;28;20468;-80
2023/08/08 13:05:10;;;;;;;3.40;0.70;;;;;;;;;;5085264;28;20490;-81
2023/08/08 13:07:37;;;;;;;2.50;0.90;;;;;;;;;;5088162;28;20476;-79
2023/08/08 13:10:07;;;;;;;3.93;0.70;;;;;;;;;;5089169;28;20457;-78
2023/08/08 13:13:01;;;;;;;3.40;0.90;;;;;;;;;;5099375;22;20492;-79
2023/08/08 13:15:47;;;;;;;1.33;0.50;;;;;;;;;;5071518;28;20540;-80
2023/08/08 13:18:19;;;;;;;1.90;0.70;;;;;;;;;;5073515;28;20755;-79
2023/08/08 13:20:57;;;;;;;1.83;0.70;;;;;;;;;;5073997;28;20457;-78
2023/08/08 13:23:25;;;;;;;8.13;2.00;;;;;;;;;;5087540;28;20471;-78
2023/08/08 13:25:54;;;;;;;1.90;0.90;;;;;;;;;;5087910;28;20463;-77
2023/08/08 13:28:23;;;;;;;3.87;0.90;;;;;;;;;;5067857;28;20469;-78
2023/08/08 13:30:50;;;;;;;2.23;0.60;;;;;;;;;;5068174;28;20449;-78
2023/08/08 13:33:18;;;;;;;2.43;0.80;;;;;;;;;;5074895;28;20460;-78
2023/08/08 13:35:48;;;;;;;2.63;0.77;;;;;;;;;;5070730;28;20524;-78
2023/08/08 13:38:16;;;;;;;2.67;0.90;;;;;;;;;;5066773;28;20465;-79
2023/08/08 13:40:43;;;;;;;1.97;0.93;;;;;;;;;;5084040;28;20486;-79
2023/08/08 13:43:11;;;;;;;2.47;0.70;;;;;;;;;;5082454;28;20444;-78
2023/08/08 13:45:40;;;;;;;2.30;0.80;;;;;;;;;;5082377;28;20567;-78
2023/08/08 13:48:08;;;;;;;2.57;0.80;;;;;;;;;;5081746;28;20538;-77
2023/08/08 13:50:37;;;;;;;3.10;0.80;;;;;;;;;;5096651;28;20458;-77
2023/08/08 13:53:05;;;;;;;2.67;1.03;;;;;;;;;;5074514;28;20468;-78
2023/08/08 13:55:38;;;;;;;2.87;0.93;;;;;;;;;;5082587;28;21177;-78
2023/08/08 13:58:06;;;;;;;2.03;0.60;;;;;;;;;;5082171;28;20940;-78
2023/08/08 14:00:35;;;;;;;2.73;0.77;;;;;;;;;;5082818;28;20463;-77
2023/08/08 14:03:06;;;;;;;3.67;1.20;;;;;;;;;;5085278;28;20459;-77
2023/08/08 14:05:34;;;;;;;3.77;0.83;;;;;;;;;;5063826;28;20443;-79
2023/08/08 14:08:09;;;;;;;3.80;1.07;;;;;;;;;;5063714;28;20904;-77
2023/08/08 14:10:39;;;;;;;2.27;0.90;;;;;;;;;;5065206;28;20440;-80
2023/08/08 14:13:08;;;;;;;3.47;0.80;;;;;;;;;;5065703;28;20503;-79
2023/08/08 14:15:36;;;;;;;6.20;0.70;;;;;;;;;;5062666;28;20457;-79
2023/08/08 14:18:06;;;;;;;2.80;1.20;;;;;;;;;;5072548;28;20457;-78
2023/08/08 14:20:44;;;;;;;1.90;0.83;;;;;;;;;;5081118;28;20457;-77
2023/08/08 14:23:12;;;;;;;2.33;1.17;;;;;;;;;;5083061;28;20440;-79
2023/08/08 14:25:40;;;;;;;3.63;1.10;;;;;;;;;;5075653;28;20461;-78
2023/08/08 14:28:07;;;;;;;3.60;1.53;;;;;;;;;;5063327;28;20512;-79
2023/08/08 14:30:50;;;;;;;2.07;0.80;;;;;;;;;;5070605;28;20445;-78
2023/08/08 14:33:21;;;;;;;5.10;1.10;;;;;;;;;;5065506;28;20438;-80
2023/08/08 14:35:50;;;;;;;3.33;1.03;;;;;;;;;;5061044;28;20453;-77
2023/08/08 14:38:28;;;;;;;3.13;0.93;;;;;;;;;;5062174;28;20876;-78
2023/08/08 14:40:58;;;;;;;2.83;1.03;;;;;;;;;;5062964;28;20462;-78
2023/08/08 14:43:26;;;;;;;2.60;0.97;;;;;;;;;;5066722;28;20445;-79
2023/08/08 14:45:54;;;;;;;2.23;1.00;;;;;;;;;;5064222;28;20457;-80
2023/08/08 14:48:23;;;;;;;3.63;0.90;;;;;;;;;;5060366;28;20574;-81
2023/08/08 14:50:50;;;;;;;2.03;0.80;;;;;;;;;;5062859;28;20779;-79
2023/08/08 14:53:21;;;;;;;4.03;0.97;;;;;;;;;;5065022;28;20469;-78
2023/08/08 14:55:53;;;;;;;4.47;1.43;;;;;;;;;;5065531;28;20449;-78
2023/08/08 14:58:26;;;;;;;5.63;1.67;;;;;;;;;;5061958;28;20461;-77
2023/08/08 15:01:09;;;;;;;5.23;1.00;;;;;;;;;;5063156;28;20442;-78
2023/08/08 15:03:42;;;;;;;2.50;1.00;;;;;;;;;;5060360;28;20461;-77
2023/08/08 15:06:11;;;;;;;3.63;1.40;;;;;;;;;;5061164;28;20526;-78
2023/08/08 15:08:38;;;;;;;2.30;1.03;;;;;;;;;;5061410;28;20568;-78